Terminal Aerodrome Forecast
Issued by NWS

Home | Current Version | Previous Version | Text Only | Print | Product List | Glossary On
Versions: 1 2 3 4 5 6 7 8 9 10 11 12 13 14 15 16 17
193
FTUS46 KEKA 011749
TAFUKI
TAF
KUKI 011749Z 0118/0218 32005KT P6SM SKC
     FM020200 34003KT P6SM SKC
     FM020500 00000KT P6SM SKC
     FM021200 30003KT P6SM VCSH FEW050 BKN100=

USA.gov is the U.S. government's official web portal to all federal, state and local government web resources and services.